Time;durP1;ratioP1;P1;durP2;ratioP2;P2;SDS_P1;SDS_P2;PMS_P1;PMS_P2;Temp;Humidity;BMP_temperature;BMP_pressure;BME280_temperature;BME280_humidity;BME280_pressure;Samples;Min_cycle;Max_cycle;Signal;HPM_P1;HPM_P2
2022/05/21 00:01:32;;;;;;;7.30;1.73;;;;;;;14.28;45.94;94367.44;5126646;28;20019;-75
2022/05/21 00:03:57;;;;;;;4.93;1.52;;;;;;;14.16;46.10;94363.53;5126687;28;20046;-76
2022/05/21 00:06:23;;;;;;;4.80;1.33;;;;;;;14.12;46.08;94370.66;5126399;28;20325;-75
2022/05/21 00:08:48;;;;;;;6.85;1.77;;;;;;;14.04;46.07;94374.16;5125981;28;20195;-74
2022/05/21 00:11:13;;;;;;;8.60;1.85;;;;;;;13.97;46.26;94373.91;5126202;28;20246;-74
2022/05/21 00:13:39;;;;;;;4.40;1.60;;;;;;;13.92;46.27;94372.19;5126528;28;20039;-74
2022/05/21 00:16:05;;;;;;;3.40;1.60;;;;;;;13.87;46.33;94366.22;5126353;28;20210;-74
2022/05/21 00:18:31;;;;;;;5.28;1.77;;;;;;;13.87;46.78;94358.94;5126291;28;20084;-75
2022/05/21 00:20:57;;;;;;;6.10;1.60;;;;;;;13.78;46.86;94361.69;5126266;28;20317;-75
2022/05/21 00:23:28;;;;;;;5.20;1.70;;;;;;;13.76;46.48;94352.34;5126455;28;20027;-74
2022/05/21 00:26:11;;;;;;;10.70;1.33;;;;;;;13.73;46.47;94359.16;5126304;28;20023;-74
2022/05/21 00:28:39;;;;;;;6.63;1.60;;;;;;;13.68;45.74;94351.31;5126053;28;20019;-75
2022/05/21 00:31:06;;;;;;;3.78;1.42;;;;;;;13.65;46.44;94351.94;5126060;28;20039;-74
2022/05/21 00:33:32;;;;;;;4.97;1.50;;;;;;;13.52;46.10;94353.72;5126029;28;20369;-75
2022/05/21 00:35:58;;;;;;;2.92;1.58;;;;;;;13.44;46.17;94347.25;5125967;28;20069;-74
2022/05/21 00:38:24;;;;;;;2.85;1.35;;;;;;;13.41;47.01;94333.72;5125642;28;20019;-75
2022/05/21 00:40:51;;;;;;;5.38;1.50;;;;;;;13.36;46.88;94344.63;5125936;28;20380;-75
2022/05/21 00:43:38;;;;;;;4.10;1.90;;;;;;;13.34;47.55;94328.09;5125940;28;20065;-75
2022/05/21 00:46:05;;;;;;;5.78;1.50;;;;;;;13.27;48.00;94328.53;5125762;28;20199;-75
2022/05/21 00:48:30;;;;;;;3.75;1.65;;;;;;;13.24;46.73;94326.50;5125593;28;20110;-74
2022/05/21 00:50:57;;;;;;;3.28;1.38;;;;;;;13.20;46.39;94325.56;5125594;28;20050;-75
2022/05/21 00:53:23;;;;;;;2.25;1.15;;;;;;;13.15;45.07;94313.13;5125562;28;20310;-75
2022/05/21 00:55:50;;;;;;;3.17;1.23;;;;;;;13.11;44.35;94316.75;5125509;28;20089;-75
2022/05/21 01:01:06;;;;;;;9.02;1.05;;;;;;;12.97;42.64;94312.38;5125457;28;20260;-75
2022/05/21 01:03:31;;;;;;;5.80;1.13;;;;;;;12.96;42.74;94316.13;5107322;28;20027;-75
2022/05/21 01:05:59;;;;;;;3.63;1.20;;;;;;;12.94;42.65;94314.88;5125386;28;20031;-75
2022/05/21 01:08:25;;;;;;;6.00;1.15;;;;;;;12.92;41.76;94315.19;5125349;28;20266;-75
2022/05/21 01:10:55;;;;;;;4.97;1.08;;;;;;;12.92;42.14;94320.53;5125374;28;20020;-75
2022/05/21 01:13:25;;;;;;;8.07;1.00;;;;;;;12.92;42.47;94315.19;5125146;28;20019;-75
2022/05/21 01:15:53;;;;;;;4.60;0.90;;;;;;;12.88;42.75;94308.91;5125310;28;20012;-75
2022/05/21 01:18:20;;;;;;;2.30;1.02;;;;;;;12.83;42.42;94307.19;5125032;28;20023;-75
2022/05/21 01:20:49;;;;;;;4.55;1.30;;;;;;;12.89;42.57;94305.13;5125457;28;20191;-75
2022/05/21 01:23:17;;;;;;;3.13;1.17;;;;;;;12.88;42.37;94308.91;5125204;28;20236;-75
2022/05/21 01:25:44;;;;;;;1.33;0.80;;;;;;;12.89;43.01;94307.03;5124968;28;20020;-75
2022/05/21 01:28:12;;;;;;;4.13;1.15;;;;;;;12.88;43.11;94303.53;5124973;28;20372;-75
2022/05/21 01:30:50;;;;;;;5.80;1.45;;;;;;;12.90;43.38;94306.69;5124890;28;20085;-75
2022/05/21 01:33:20;;;;;;;8.35;1.20;;;;;;;12.92;43.69;94301.03;5124823;28;20026;-75
2022/05/21 01:35:47;;;;;;;3.92;1.23;;;;;;;12.90;43.83;94308.59;5124830;28;20078;-75
2022/05/21 01:38:15;;;;;;;6.10;1.30;;;;;;;12.86;45.20;94313.78;5124649;28;20352;-75
2022/05/21 01:40:42;;;;;;;3.97;1.00;;;;;;;12.85;43.29;94296.94;5124687;28;20015;-75
2022/05/21 01:45:52;;;;;;;4.45;1.92;;;;;;;12.80;43.77;94302.47;5124448;28;20038;-75
2022/05/21 01:48:21;;;;;;;3.92;1.02;;;;;;;12.84;45.81;94303.41;5124661;28;20043;-75
2022/05/21 01:50:48;;;;;;;2.67;0.80;;;;;;;12.80;44.91;94318.53;5123996;28;20088;-76
2022/05/21 01:53:15;;;;;;;2.30;1.20;;;;;;;12.76;44.60;94306.06;5124373;28;20076;-76
2022/05/21 01:55:40;;;;;;;3.90;2.45;;;;;;;12.72;44.58;94307.81;5124504;28;20031;-76
2022/05/21 01:58:06;;;;;;;3.63;1.45;;;;;;;12.71;44.47;94315.06;5124421;28;20068;-75
2022/05/21 02:00:32;;;;;;;3.70;1.40;;;;;;;12.71;44.93;94311.59;5124195;28;20094;-76
2022/05/21 02:02:58;;;;;;;3.72;2.53;;;;;;;12.62;45.47;94314.28;5124321;28;20011;-76
2022/05/21 02:05:23;;;;;;;5.22;1.50;;;;;;;12.57;46.77;94314.41;5124343;28;20318;-76
2022/05/21 02:07:48;;;;;;;5.10;1.80;;;;;;;12.52;47.53;94296.66;5124468;28;20016;-76
2022/05/21 02:10:14;;;;;;;2.97;1.55;;;;;;;12.48;48.29;94301.06;5124186;28;20020;-76
2022/05/21 02:12:40;;;;;;;4.75;1.33;;;;;;;12.44;48.91;94289.41;5124124;28;20528;-76
2022/05/21 02:15:06;;;;;;;3.53;1.42;;;;;;;12.31;49.11;94280.41;5123921;28;20034;-76
2022/05/21 02:17:31;;;;;;;4.78;1.60;;;;;;;12.28;49.06;94274.94;5124119;28;20057;-76
2022/05/21 02:19:57;;;;;;;2.92;1.65;;;;;;;12.24;49.46;94270.19;5124156;28;20090;-76
2022/05/21 02:22:22;;;;;;;3.17;1.45;;;;;;;12.17;48.45;94264.56;5123865;28;20012;-76
2022/05/21 02:24:48;;;;;;;6.97;1.40;;;;;;;12.14;48.79;94262.50;5124223;28;20015;-77
2022/05/21 02:27:14;;;;;;;6.18;1.35;;;;;;;12.08;48.58;94270.97;5123790;28;20027;-76
2022/05/21 02:29:41;;;;;;;2.28;1.08;;;;;;;12.04;49.46;94270.81;5123959;28;20213;-76
2022/05/21 02:32:07;;;;;;;4.47;1.00;;;;;;;11.98;49.47;94262.16;5123691;28;20337;-76
2022/05/21 02:34:33;;;;;;;5.82;1.25;;;;;;;11.94;49.61;94258.53;5123864;28;20043;-75
2022/05/21 02:39:42;;;;;;;2.80;1.20;;;;;;;11.80;50.85;94269.28;5123678;28;20042;-76
2022/05/21 02:42:43;;;;;;;2.75;1.23;;;;;;;11.74;50.27;94275.09;5123740;28;20371;-75
2022/05/21 02:44:55;;;;;;;2.22;1.15;;;;;;;11.72;48.44;94270.06;5123526;28;20076;-75
2022/05/21 02:47:20;;;;;;;2.80;1.23;;;;;;;11.72;49.85;94263.94;5123703;28;20334;-76
2022/05/21 02:49:46;;;;;;;4.13;1.23;;;;;;;11.74;51.05;94267.09;5123366;28;20043;-76
2022/05/21 02:52:11;;;;;;;2.70;1.52;;;;;;;11.75;50.88;94266.78;5123652;28;20035;-75
2022/05/21 02:54:37;;;;;;;6.70;1.45;;;;;;;11.75;51.40;94271.34;5123569;28;20096;-75
2022/05/21 02:57:03;;;;;;;3.72;1.50;;;;;;;11.66;51.65;94276.63;5123593;28;20035;-75
2022/05/21 02:59:29;;;;;;;2.92;1.42;;;;;;;11.64;52.07;94271.63;5123427;28;20027;-75
2022/05/21 03:01:54;;;;;;;2.13;1.13;;;;;;;11.61;52.16;94274.91;5125447;28;20011;-76
2022/05/21 03:04:20;;;;;;;6.43;1.45;;;;;;;11.60;52.89;94280.53;5127733;28;20230;-76
2022/05/21 03:06:46;;;;;;;2.60;1.40;;;;;;;11.57;53.33;94297.19;5127956;28;20115;-76
2022/05/21 03:11:56;;;;;;;8.27;1.67;;;;;;;11.53;51.77;94301.56;5127635;28;20314;-75
2022/05/21 03:14:21;;;;;;;4.07;1.75;;;;;;;11.48;51.28;94307.03;5127420;28;20027;-74
2022/05/21 03:16:46;;;;;;;4.55;1.65;;;;;;;11.44;50.96;94302.31;5127482;28;20094;-75
2022/05/21 03:19:12;;;;;;;6.63;1.50;;;;;;;11.38;51.57;94303.53;5127425;28;20533;-75
2022/05/21 03:21:37;;;;;;;3.42;1.83;;;;;;;11.37;52.16;94291.28;5127446;28;20019;-75
2022/05/21 03:24:04;;;;;;;2.95;1.73;;;;;;;11.41;52.36;94294.13;5127410;28;20015;-75
2022/05/21 03:26:30;;;;;;;13.02;2.00;;;;;;;11.41;53.15;94294.91;5127290;28;20038;-75
2022/05/21 03:28:55;;;;;;;5.43;1.60;;;;;;;11.44;53.66;94296.19;5127163;28;20030;-75
2022/05/21 03:31:21;;;;;;;6.35;1.70;;;;;;;11.44;53.76;94294.31;5127272;28;20024;-75
2022/05/21 03:33:46;;;;;;;10.63;2.20;;;;;;;11.44;54.02;94285.53;5127278;28;20019;-75
2022/05/21 03:36:12;;;;;;;3.83;1.35;;;;;;;11.50;53.42;94280.81;5127303;28;20313;-75
2022/05/21 03:38:37;;;;;;;3.45;1.50;;;;;;;11.52;53.81;94274.09;5127145;28;20032;-75
2022/05/21 03:41:03;;;;;;;5.57;2.00;;;;;;;11.58;53.88;94285.41;5126991;28;20024;-75
2022/05/21 03:43:28;;;;;;;10.75;2.55;;;;;;;11.60;53.79;94277.88;5108837;28;20068;-76
2022/05/21 03:45:54;;;;;;;6.97;2.05;;;;;;;11.65;54.53;94264.41;5127027;28;20027;-76
2022/05/21 03:48:19;;;;;;;4.97;2.20;;;;;;;11.68;53.86;94273.66;5127099;28;20043;-76
2022/05/21 03:50:45;;;;;;;11.95;2.80;;;;;;;11.74;53.62;94278.53;5126906;28;20255;-76
2022/05/21 03:53:13;;;;;;;4.72;2.00;;;;;;;11.80;53.58;94282.66;5126831;28;20023;-75
2022/05/21 03:55:39;;;;;;;5.90;2.58;;;;;;;11.87;54.36;94292.91;5126756;28;20031;-75
2022/05/21 03:58:04;;;;;;;13.20;2.58;;;;;;;11.93;54.95;94296.25;5126858;28;20019;-76
2022/05/21 04:00:30;;;;;;;7.60;2.20;;;;;;;11.98;54.29;94296.88;5126533;28;20076;-76
2022/05/21 04:02:57;;;;;;;4.50;2.15;;;;;;;12.06;54.34;94311.34;5126774;28;20031;-76
2022/05/21 04:05:22;;;;;;;10.98;2.80;;;;;;;12.12;54.13;94317.34;5126650;28;20023;-76
2022/05/21 04:07:49;;;;;;;10.00;2.08;;;;;;;12.20;55.36;94321.91;5126661;28;20027;-76
2022/05/21 04:10:16;;;;;;;6.80;3.03;;;;;;;12.27;53.37;94321.44;5126555;28;20090;-75
2022/05/21 04:12:42;;;;;;;5.78;2.33;;;;;;;12.30;53.54;94320.84;5125655;28;20020;-76
2022/05/21 04:15:08;;;;;;;10.45;4.05;;;;;;;12.29;53.00;94319.25;5126174;28;20113;-75
2022/05/21 04:17:35;;;;;;;6.07;2.20;;;;;;;12.38;52.97;94322.75;5126466;28;20028;-75
2022/05/21 04:20:01;;;;;;;11.18;3.17;;;;;;;12.42;52.74;94326.38;5126158;28;20310;-75
2022/05/21 04:22:27;;;;;;;4.85;2.22;;;;;;;12.49;52.44;94318.66;5126447;28;20047;-75
2022/05/21 04:24:52;;;;;;;9.18;2.63;;;;;;;12.54;52.32;94313.16;5126289;28;20306;-75
2022/05/21 04:27:18;;;;;;;10.98;2.40;;;;;;;12.59;52.41;94312.22;5125966;28;20433;-75
2022/05/21 04:29:43;;;;;;;9.52;2.53;;;;;;;12.66;52.35;94323.25;5126004;28;20337;-75
2022/05/21 04:32:09;;;;;;;11.50;2.97;;;;;;;12.75;52.47;94316.00;5126050;28;20039;-75
2022/05/21 04:34:34;;;;;;;6.65;2.60;;;;;;;12.83;52.31;94320.56;5126151;28;20020;-75
2022/05/21 04:37:00;;;;;;;11.48;3.65;;;;;;;12.91;52.82;94310.19;5125897;28;20100;-75
2022/05/21 04:39:25;;;;;;;11.82;2.67;;;;;;;13.00;52.44;94313.63;5125912;28;20019;-76
2022/05/21 04:41:51;;;;;;;12.35;2.47;;;;;;;13.10;51.32;94309.81;5125963;28;20015;-76
2022/05/21 04:44:16;;;;;;;7.00;3.72;;;;;;;13.22;53.34;94307.28;5125929;28;20091;-75
2022/05/21 04:46:43;;;;;;;9.50;2.45;;;;;;;13.33;52.97;94307.75;5125621;28;20081;-76
2022/05/21 04:49:08;;;;;;;11.82;2.47;;;;;;;13.42;52.20;94306.63;5125756;28;20317;-77
2022/05/21 04:51:37;;;;;;;9.68;2.50;;;;;;;13.54;52.15;94307.88;5125588;28;20064;-74
2022/05/21 04:54:03;;;;;;;8.93;2.83;;;;;;;13.65;52.24;94319.78;5125609;28;20019;-75
2022/05/21 04:56:29;;;;;;;7.40;2.28;;;;;;;13.71;51.98;94326.53;5125653;28;20217;-76
2022/05/21 04:58:54;;;;;;;6.65;3.25;;;;;;;13.79;51.44;94330.31;5125340;28;20020;-76
2022/05/21 05:01:20;;;;;;;9.45;2.60;;;;;;;13.85;51.78;94313.72;5125639;28;20024;-75
2022/05/21 05:03:45;;;;;;;10.90;3.03;;;;;;;13.96;51.71;94321.41;5125399;28;20022;-75
2022/05/21 05:06:11;;;;;;;6.53;2.80;;;;;;;14.09;52.52;94331.13;5125409;28;20050;-76
2022/05/21 05:08:36;;;;;;;8.43;3.10;;;;;;;14.14;50.37;94330.91;5125411;28;20020;-76
2022/05/21 05:11:02;;;;;;;9.32;3.55;;;;;;;14.14;51.54;94320.19;5125158;28;20024;-78
2022/05/21 05:13:27;;;;;;;9.75;3.00;;;;;;;14.26;51.55;94316.81;5124936;28;20024;-79
2022/05/21 05:15:53;;;;;;;6.53;3.22;;;;;;;14.40;51.34;94316.59;5125270;28;20056;-80
2022/05/21 05:18:27;;;;;;;10.95;3.65;;;;;;;14.52;51.76;94316.66;5125080;28;20025;-80
2022/05/21 05:20:53;;;;;;;8.82;3.15;;;;;;;14.63;50.50;94320.56;5125167;28;20361;-80
2022/05/21 05:23:18;;;;;;;8.80;3.17;;;;;;;14.67;50.75;94320.69;5125029;28;20019;-80
2022/05/21 05:25:44;;;;;;;9.98;3.22;;;;;;;14.73;50.38;94323.97;5123535;28;20340;-79
2022/05/21 05:28:19;;;;;;;14.15;3.38;;;;;;;14.79;49.94;94326.09;5124772;28;20345;-78
2022/05/21 05:30:46;;;;;;;10.50;3.70;;;;;;;14.82;50.81;94311.28;5125137;28;20023;-79
2022/05/21 05:33:12;;;;;;;11.13;2.92;;;;;;;14.89;49.52;94311.50;5124754;28;20027;-79
2022/05/21 05:35:38;;;;;;;11.57;2.70;;;;;;;14.89;49.15;94306.16;5124890;28;20031;-80
2022/05/21 05:38:08;;;;;;;10.10;2.92;;;;;;;14.90;48.72;94309.59;5124758;28;20030;-79
2022/05/21 05:40:35;;;;;;;11.25;3.53;;;;;;;14.96;48.74;94306.41;5124561;28;20047;-79
2022/05/21 05:43:03;;;;;;;15.38;3.53;;;;;;;14.98;48.80;94306.06;5124847;28;20012;-79
2022/05/21 05:45:29;;;;;;;15.35;4.43;;;;;;;15.02;48.64;94313.16;5124625;28;20016;-79
2022/05/21 05:47:54;;;;;;;14.95;3.10;;;;;;;15.09;48.07;94298.41;5124738;28;20111;-79
2022/05/21 05:50:21;;;;;;;6.93;2.92;;;;;;;15.16;48.09;94304.00;5124686;28;20052;-75
2022/05/21 05:52:46;;;;;;;9.68;3.17;;;;;;;15.12;48.17;94301.22;5124649;28;20171;-85
2022/05/21 05:55:12;;;;;;;12.15;3.35;;;;;;;15.17;47.29;94306.38;5124461;28;20096;-79
2022/05/21 05:57:38;;;;;;;17.85;2.90;;;;;;;15.21;48.11;94295.75;5124389;28;20332;-79
2022/05/21 06:00:06;;;;;;;8.32;2.78;;;;;;;15.32;47.66;94294.22;5124437;28;20222;-79
2022/05/21 06:05:18;;;;;;;13.38;3.85;;;;;;;15.43;47.09;94287.31;5124089;28;20205;-78
2022/05/21 06:07:46;;;;;;;7.97;3.13;;;;;;;15.48;46.17;94288.97;5124213;28;20064;-82
2022/05/21 06:10:17;;;;;;;14.68;3.22;;;;;;;15.55;46.62;94277.69;5123949;28;20317;-78
2022/05/21 06:12:42;;;;;;;13.70;3.30;;;;;;;15.64;46.49;94278.38;5123273;28;20024;-78
2022/05/21 06:15:10;;;;;;;11.32;3.47;;;;;;;15.76;46.70;94264.97;5122799;28;20313;-78
2022/05/21 06:17:36;;;;;;;12.60;3.47;;;;;;;15.91;46.83;94270.81;5123084;28;20080;-78
2022/05/21 06:20:03;;;;;;;17.70;3.95;;;;;;;16.04;46.20;94275.84;5122138;28;20103;-78
2022/05/21 06:22:28;;;;;;;17.27;3.47;;;;;;;16.10;46.52;94272.91;5121703;28;20260;-77
2022/05/21 06:24:54;;;;;;;18.27;3.80;;;;;;;16.12;45.57;94270.66;5123302;28;20102;-76
2022/05/21 06:27:19;;;;;;;10.32;3.38;;;;;;;16.21;45.13;94274.03;5122017;28;20019;-77
2022/05/21 06:29:47;;;;;;;9.43;2.67;;;;;;;16.29;45.37;94264.28;5121668;28;20073;-78
2022/05/21 06:32:12;;;;;;;10.60;4.18;;;;;;;16.36;44.77;94257.19;5121405;28;20217;-78
2022/05/21 06:34:38;;;;;;;10.55;3.05;;;;;;;16.49;44.28;94251.81;5121604;28;20106;-76
2022/05/21 06:37:06;;;;;;;22.85;3.20;;;;;;;16.61;44.06;94251.78;5121227;28;20210;-76
2022/05/21 06:39:32;;;;;;;16.35;3.10;;;;;;;16.77;43.41;94249.91;5121284;28;20028;-76
2022/05/21 06:41:59;;;;;;;18.70;3.17;;;;;;;16.94;43.80;94240.78;5122615;28;20064;-76
2022/05/21 06:44:24;;;;;;;10.80;2.83;;;;;;;17.08;43.24;94242.31;5123826;28;20023;-76
2022/05/21 06:46:50;;;;;;;21.90;3.45;;;;;;;17.21;42.76;94235.72;5123077;28;20019;-76
2022/05/21 06:49:15;;;;;;;5.72;3.30;;;;;;;17.32;41.82;94242.16;5123362;28;20035;-77
2022/05/21 06:51:40;;;;;;;6.38;2.50;;;;;;;17.41;41.65;94237.38;5123511;28;20024;-79
2022/05/21 06:54:06;;;;;;;11.07;3.03;;;;;;;17.52;42.08;94232.25;5123158;28;20038;-72
2022/05/21 06:56:31;;;;;;;19.70;2.63;;;;;;;17.66;42.64;94223.72;5123094;28;20020;-71
2022/05/21 06:58:57;;;;;;;13.20;2.58;;;;;;;17.77;41.62;94224.78;5123268;28;20314;-72
2022/05/21 07:01:22;;;;;;;9.50;3.90;;;;;;;17.75;40.46;94221.66;5123159;28;20051;-72
2022/05/21 07:03:47;;;;;;;11.65;2.50;;;;;;;17.76;39.64;94219.72;5123167;28;20043;-71
2022/05/21 07:08:57;;;;;;;6.45;1.90;;;;;;;17.84;39.09;94213.41;5123227;28;20096;-73
2022/05/21 07:11:23;;;;;;;9.00;2.08;;;;;;;17.86;39.08;94216.53;5123090;28;20023;-73
2022/05/21 07:13:48;;;;;;;15.80;2.28;;;;;;;17.91;38.92;94213.56;5123165;28;20210;-73
2022/05/21 07:16:14;;;;;;;6.70;2.17;;;;;;;17.88;38.96;94213.50;5123202;28;20099;-73
2022/05/21 07:18:40;;;;;;;8.50;2.40;;;;;;;17.96;39.01;94216.00;5122988;28;20020;-73
2022/05/21 07:21:05;;;;;;;11.18;2.38;;;;;;;18.06;38.67;94209.28;5123105;28;20019;-73
2022/05/21 07:23:31;;;;;;;11.45;2.05;;;;;;;18.16;38.52;94205.25;5123289;28;20024;-73
2022/05/21 07:25:56;;;;;;;13.05;2.88;;;;;;;18.26;37.93;94196.59;5123101;28;20035;-74
2022/05/21 07:28:22;;;;;;;12.35;2.47;;;;;;;18.35;37.80;94199.09;5122877;28;20271;-74
2022/05/21 07:30:48;;;;;;;15.48;1.90;;;;;;;18.43;38.97;94188.09;5122855;28;20032;-74
2022/05/21 07:33:16;;;;;;;10.02;2.30;;;;;;;18.53;39.09;94183.28;5122936;28;20028;-74
2022/05/21 07:35:42;;;;;;;8.13;2.42;;;;;;;18.61;37.86;94179.56;5122535;28;20024;-73
2022/05/21 07:38:10;;;;;;;9.52;2.35;;;;;;;18.72;38.26;94185.94;5122378;28;20092;-73
2022/05/21 07:40:37;;;;;;;9.30;2.35;;;;;;;18.86;38.30;94190.88;5122881;28;20068;-72
2022/05/21 07:43:14;;;;;;;6.70;2.15;;;;;;;18.94;37.87;94187.16;5122680;28;20043;-72
2022/05/21 07:45:41;;;;;;;6.40;1.98;;;;;;;18.99;37.39;94195.00;5122893;28;20030;-74
2022/05/21 07:48:09;;;;;;;6.28;2.00;;;;;;;19.09;37.32;94195.53;5122933;28;20043;-72
2022/05/21 07:50:36;;;;;;;6.25;2.42;;;;;;;19.17;37.27;94189.91;5126542;28;20060;-72
2022/05/21 07:53:02;;;;;;;14.40;2.38;;;;;;;19.23;36.01;94182.25;5126634;28;20238;-78
2022/05/21 07:55:27;;;;;;;10.00;2.35;;;;;;;19.31;35.77;94193.97;5127130;28;20016;-77
2022/05/21 07:57:53;;;;;;;7.38;1.92;;;;;;;19.35;36.20;94178.63;5126748;28;20022;-77
2022/05/21 08:00:18;;;;;;;7.07;2.63;;;;;;;19.41;36.44;94179.88;5126838;28;20031;-77
2022/05/21 08:02:45;;;;;;;8.35;2.30;;;;;;;19.47;36.24;94174.94;5126863;28;20019;-77
2022/05/21 08:05:11;;;;;;;13.02;3.83;;;;;;;19.38;36.67;94167.88;5126736;28;20023;-77
2022/05/21 08:07:36;;;;;;;11.40;2.25;;;;;;;19.51;36.58;94159.56;5126561;28;20322;-78
2022/05/21 08:10:04;;;;;;;5.82;2.03;;;;;;;19.63;36.27;94162.06;5126079;28;20038;-77
2022/05/21 08:12:30;;;;;;;6.35;2.30;;;;;;;19.77;36.57;94156.91;5126302;28;20053;-77
2022/05/21 08:14:55;;;;;;;9.23;2.78;;;;;;;19.93;37.00;94158.69;5126691;28;20024;-76
2022/05/21 08:17:21;;;;;;;15.82;2.53;;;;;;;20.04;36.00;94151.47;5126462;28;20095;-77
2022/05/21 08:19:46;;;;;;;10.80;2.70;;;;;;;20.08;36.28;94144.19;5126533;28;20074;-76
2022/05/21 08:27:40;;;;;;;12.02;2.90;;;;;;;20.36;35.36;94132.97;5126204;28;20070;-77
2022/05/21 08:30:06;;;;;;;11.85;3.28;;;;;;;20.38;35.61;94141.50;5126265;28;20019;-77
2022/05/21 08:32:32;;;;;;;15.65;3.42;;;;;;;20.52;36.23;94142.81;5126200;28;20019;-77
2022/05/21 08:35:00;;;;;;;16.55;3.05;;;;;;;20.63;35.80;94139.09;5126071;28;20019;-77
2022/05/21 08:37:27;;;;;;;6.88;2.47;;;;;;;20.78;34.14;94147.38;5126188;28;20020;-77
2022/05/21 08:39:53;;;;;;;8.98;2.65;;;;;;;20.81;34.52;94146.66;5126061;28;20103;-77
2022/05/21 08:42:30;;;;;;;11.88;3.20;;;;;;;20.85;34.72;94142.03;5126219;28;20030;-77
2022/05/21 08:45:07;;;;;;;6.95;3.20;;;;;;;20.90;34.34;94149.81;5126117;28;20224;-77
2022/05/21 08:47:37;;;;;;;8.43;3.25;;;;;;;20.99;34.96;94146.84;5125897;28;20291;-77
2022/05/21 08:50:17;;;;;;;10.43;3.13;;;;;;;21.04;34.15;94133.72;5125983;28;20038;-77
2022/05/21 08:52:44;;;;;;;10.15;2.38;;;;;;;21.16;35.08;94134.59;5125859;28;20034;-77
2022/05/21 08:55:16;;;;;;;6.70;2.50;;;;;;;21.34;35.21;94145.59;5125670;28;20031;-77
2022/05/21 08:57:47;;;;;;;11.77;2.95;;;;;;;21.48;34.62;94136.84;5125566;28;20073;-77
2022/05/21 09:00:19;;;;;;;9.75;3.20;;;;;;;21.60;34.06;94142.75;5125333;28;20030;-77
2022/05/21 09:02:44;;;;;;;27.30;3.25;;;;;;;21.69;33.96;94136.22;5125541;28;20329;-77
2022/05/21 09:05:15;;;;;;;14.40;2.53;;;;;;;21.81;33.83;94130.47;5125177;28;20027;-77
2022/05/21 09:08:06;;;;;;;12.05;2.40;;;;;;;21.94;34.01;94136.34;5125419;28;20098;-78
2022/05/21 09:10:52;;;;;;;10.18;2.83;;;;;;;22.04;33.23;94143.78;5125254;28;20020;-77
2022/05/21 09:13:56;;;;;;;6.82;3.17;;;;;;;22.16;32.83;94129.91;5125312;28;20023;-78
2022/05/21 09:19:08;;;;;;;7.78;3.05;;;;;;;22.43;32.07;94126.97;5124851;28;20218;-78
2022/05/21 09:21:40;;;;;;;11.70;3.08;;;;;;;22.56;31.79;94140.97;5124948;28;20026;-77
2022/05/21 09:24:07;;;;;;;14.82;3.42;;;;;;;22.60;32.06;94126.25;5124879;28;20019;-77
2022/05/21 09:26:42;;;;;;;16.60;3.40;;;;;;;22.71;32.18;94128.22;5124963;28;20225;-78
2022/05/21 09:29:27;;;;;;;13.07;2.97;;;;;;;22.81;30.95;94122.78;5124555;28;20023;-77
2022/05/21 09:31:57;;;;;;;12.23;3.35;;;;;;;23.00;31.66;94127.13;5124618;28;20217;-77
2022/05/21 09:34:32;;;;;;;13.32;3.30;;;;;;;23.09;30.90;94129.50;5124653;28;20061;-77
2022/05/21 09:37:00;;;;;;;9.65;3.10;;;;;;;23.22;30.29;94121.72;5124683;28;20039;-77
2022/05/21 09:39:33;;;;;;;11.13;3.08;;;;;;;23.33;29.81;94119.03;5124621;28;20031;-78
2022/05/21 09:42:09;;;;;;;9.30;2.92;;;;;;;23.40;28.90;94117.06;5124714;28;20023;-78
2022/05/21 09:47:24;;;;;;;11.50;4.03;;;;;;;23.60;30.00;94109.31;5123855;28;20050;-77
2022/05/21 09:50:06;;;;;;;5.47;2.17;;;;;;;23.78;29.49;94106.59;5124135;28;20023;-76
2022/05/21 09:52:33;;;;;;;9.32;2.28;;;;;;;24.00;29.58;94106.56;5124064;28;20318;-77
2022/05/21 09:55:01;;;;;;;5.40;2.13;;;;;;;24.14;26.83;94114.69;5124297;28;20191;-77
2022/05/21 09:57:39;;;;;;;4.57;1.85;;;;;;;24.22;25.74;94109.97;5124688;28;20277;-77
2022/05/21 10:00:17;;;;;;;5.63;1.83;;;;;;;24.27;26.19;94106.09;5124039;28;20020;-77
2022/05/21 10:02:49;;;;;;;7.97;2.10;;;;;;;24.41;27.64;94106.03;5123917;28;20199;-77
2022/05/21 10:05:30;;;;;;;6.57;1.80;;;;;;;24.51;26.76;94101.75;5124378;28;20227;-79
2022/05/21 10:11:00;;;;;;;5.13;2.30;;;;;;;24.70;25.88;94084.91;5123290;28;20088;-78
2022/05/21 10:13:42;;;;;;;4.80;1.45;;;;;;;24.85;24.83;94082.84;5123755;28;20024;-77
2022/05/21 10:16:31;;;;;;;3.00;1.20;;;;;;;24.97;24.83;94079.69;5124088;28;20031;-78
2022/05/21 10:19:18;;;;;;;6.00;1.48;;;;;;;25.08;23.10;94074.16;5105602;28;20039;-78
2022/05/21 10:22:00;;;;;;;5.57;1.80;;;;;;;25.23;23.44;94063.94;5123656;28;20091;-77
2022/05/21 10:24:50;;;;;;;12.40;1.55;;;;;;;25.38;22.86;94064.59;5123797;28;20203;-78
2022/05/21 10:27:50;;;;;;;4.72;1.25;;;;;;;25.57;19.97;94058.56;5122708;28;20019;-77
2022/05/21 10:30:23;;;;;;;7.32;1.83;;;;;;;25.63;20.92;94053.47;5121978;28;20019;-77
2022/05/21 10:33:29;;;;;;;4.15;1.92;;;;;;;25.71;20.53;94052.22;5122168;28;20303;-79
2022/05/21 10:35:57;;;;;;;4.00;1.35;;;;;;;25.67;19.65;94056.16;5121833;28;20034;-77
2022/05/21 10:39:00;;;;;;;4.03;1.30;;;;;;;25.70;19.24;94056.09;5122016;28;20027;-77
2022/05/21 10:41:28;;;;;;;;;;;;;;;25.75;20.67;94061.13;5122104;28;20026;-77
2022/05/21 10:44:28;;;;;;;4.50;1.42;;;;;;;25.81;21.87;94058.75;5121686;28;19908;-77
2022/05/21 10:47:10;;;;;;;5.35;1.30;;;;;;;25.83;20.29;94048.97;5121932;28;20020;-78
2022/05/21 10:50:08;;;;;;;4.18;1.52;;;;;;;25.97;20.07;94042.63;5122215;28;20028;-78
2022/05/21 10:53:12;;;;;;;2.45;1.13;;;;;;;26.03;19.52;94034.72;5121907;28;20042;-78
2022/05/21 10:55:57;;;;;;;5.72;1.33;;;;;;;26.13;19.34;94030.31;5123112;28;20020;-77
2022/05/21 10:58:59;;;;;;;2.22;1.15;;;;;;;26.18;20.14;94025.19;5123124;28;20011;-78
2022/05/21 11:01:25;;;;;;;4.70;1.13;;;;;;;26.20;20.54;94024.78;5123390;28;20027;-78
2022/05/21 11:04:24;;;;;;;3.65;1.77;;;;;;;26.26;20.84;94014.97;5123358;28;20310;-78
2022/05/21 11:07:01;;;;;;;11.70;2.55;;;;;;;26.35;21.46;94012.47;5123269;28;20035;-78
2022/05/21 11:09:39;;;;;;;6.30;1.40;;;;;;;26.41;20.75;94004.59;5123208;28;20023;-78
2022/05/21 11:12:11;;;;;;;2.70;1.30;;;;;;;26.57;20.89;93995.81;5123337;28;20302;-78
2022/05/21 11:14:54;;;;;;;6.07;1.80;;;;;;;26.74;20.44;93989.31;5123411;28;20145;-78
2022/05/21 11:17:38;;;;;;;3.63;1.15;;;;;;;26.80;21.09;93975.97;5105034;28;20398;-78
2022/05/21 11:20:23;;;;;;;5.43;1.30;;;;;;;26.82;22.28;93973.59;5123486;28;20034;-78
2022/05/21 11:22:56;;;;;;;7.45;1.42;;;;;;;26.94;20.35;93970.25;5123213;28;20081;-78
2022/05/21 11:25:46;;;;;;;2.63;1.00;;;;;;;26.85;19.03;93972.78;5127407;28;20098;-78
2022/05/21 11:28:40;;;;;;;5.55;1.13;;;;;;;26.90;19.60;93955.88;5127084;28;20019;-78
2022/05/21 11:31:15;;;;;;;3.45;1.75;;;;;;;27.02;20.66;93954.50;5127217;28;20076;-77
2022/05/21 11:39:18;;;;;;;4.22;0.98;;;;;;;27.53;19.56;93951.69;5127090;28;20065;-78
2022/05/21 11:41:53;;;;;;;6.47;1.40;;;;;;;27.64;19.15;93955.03;5127046;28;20019;-78
2022/05/21 11:47:07;;;;;;;4.68;1.67;;;;;;;27.84;19.80;93943.28;5126706;28;20030;-78
2022/05/21 11:49:59;;;;;;;3.80;1.40;;;;;;;27.91;19.14;93948.66;5126930;28;20047;-78
2022/05/21 11:52:28;;;;;;;21.30;1.70;;;;;;;28.01;19.69;93945.69;5126486;28;20036;-78
2022/05/21 11:54:53;;;;;;;7.57;1.77;;;;;;;28.15;20.21;93946.56;5126477;28;20038;-79
2022/05/21 11:57:37;;;;;;;4.68;1.40;;;;;;;28.17;19.34;93953.19;5126506;28;20186;-78
2022/05/21 12:00:05;;;;;;;3.83;1.50;;;;;;;28.09;19.32;93940.84;5126660;28;20038;-78
2022/05/21 12:02:33;;;;;;;2.60;1.30;;;;;;;28.10;19.65;93942.38;5126968;28;20026;-76
2022/05/21 12:05:10;;;;;;;3.95;2.20;;;;;;;28.19;19.97;93928.88;5126181;28;20023;-77
2022/05/21 12:07:43;;;;;;;5.90;1.40;;;;;;;28.30;20.97;93922.41;5126229;28;20072;-78
2022/05/21 12:10:16;;;;;;;1.50;1.00;;;;;;;28.57;20.72;93920.22;5126360;28;20337;-77
2022/05/21 12:13:00;;;;;;;2.85;1.23;;;;;;;28.89;19.42;93920.66;5126445;28;20027;-77
2022/05/21 12:15:44;;;;;;;5.03;1.42;;;;;;;28.99;19.12;93927.88;5126241;28;20027;-77
2022/05/21 12:18:34;;;;;;;4.07;1.60;;;;;;;28.95;19.70;93927.94;5126033;28;20027;-78
2022/05/21 12:21:00;;;;;;;11.68;1.83;;;;;;;28.78;20.21;93931.88;5108122;28;20030;-77
2022/05/21 12:23:25;;;;;;;3.53;1.73;;;;;;;28.64;20.79;93927.53;5125755;28;20028;-77